createdAt,value
2018-07-08T00:00:30.431Z,99.90
2018-07-08T00:02:58.914Z,99.90
2018-07-08T00:05:27.422Z,99.90
2018-07-08T00:07:56.021Z,99.90
2018-07-08T00:10:24.701Z,99.90
2018-07-08T00:12:53.256Z,99.90
2018-07-08T00:15:21.715Z,99.90
2018-07-08T00:17:50.176Z,99.90
2018-07-08T00:20:18.704Z,99.90
2018-07-08T00:22:47.139Z,99.90
2018-07-08T00:25:15.648Z,99.90
2018-07-08T00:27:44.154Z,99.90
2018-07-08T00:30:12.670Z,99.90
2018-07-08T00:32:41.285Z,99.90
2018-07-08T00:35:09.677Z,99.90
2018-07-08T00:37:38.237Z,99.60
2018-07-08T00:40:06.725Z,99.50
2018-07-08T00:42:36.339Z,99.50
2018-07-08T00:45:05.138Z,99.70
2018-07-08T00:47:33.609Z,99.90
2018-07-08T00:50:02.113Z,99.90
2018-07-08T00:52:30.651Z,99.90
2018-07-08T00:54:59.088Z,99.90
2018-07-08T00:57:27.541Z,99.90
2018-07-08T00:59:56.018Z,99.90
2018-07-08T01:02:24.448Z,99.90
2018-07-08T01:04:52.894Z,99.90
2018-07-08T01:07:21.386Z,99.80
2018-07-08T01:09:49.842Z,99.80
2018-07-08T01:12:18.320Z,99.90
2018-07-08T01:14:46.813Z,99.90
2018-07-08T01:17:15.271Z,99.90
2018-07-08T01:19:46.026Z,99.90
2018-07-08T01:22:14.498Z,99.90
2018-07-08T01:24:43.856Z,99.90
2018-07-08T01:27:18.744Z,99.90
2018-07-08T01:29:47.242Z,99.90
2018-07-08T01:32:15.711Z,99.90
2018-07-08T01:34:44.895Z,99.90
2018-07-08T01:37:14.031Z,99.90
2018-07-08T01:39:42.511Z,99.90
2018-07-08T01:42:10.959Z,99.90
2018-07-08T01:44:39.460Z,99.90
2018-07-08T01:47:07.902Z,99.90
2018-07-08T01:49:36.326Z,99.90
2018-07-08T01:52:05.178Z,99.90
2018-07-08T01:54:33.634Z,99.90
2018-07-08T01:57:02.072Z,99.90
2018-07-08T01:59:30.591Z,99.90
2018-07-08T02:01:59.061Z,99.90
2018-07-08T02:04:27.544Z,99.90
2018-07-08T02:06:56.141Z,99.90
2018-07-08T02:09:25.051Z,99.90
2018-07-08T02:11:53.569Z,99.90
2018-07-08T02:14:22.150Z,99.90
2018-07-08T02:16:50.848Z,99.90
2018-07-08T02:19:19.349Z,99.90
2018-07-08T02:21:47.859Z,99.90
2018-07-08T02:24:16.321Z,99.90
2018-07-08T02:26:44.911Z,99.90
2018-07-08T02:29:13.831Z,99.90
2018-07-08T02:31:42.482Z,99.90
2018-07-08T02:34:11.014Z,99.90
2018-07-08T02:36:39.536Z,99.90
2018-07-08T02:39:08.379Z,99.90
2018-07-08T02:41:37.054Z,99.90
2018-07-08T02:44:05.897Z,99.90
2018-07-08T02:46:34.433Z,99.90
2018-07-08T02:49:03.165Z,99.90
2018-07-08T02:51:32.091Z,99.90
2018-07-08T02:54:00.523Z,99.90
2018-07-08T02:56:29.578Z,99.90
2018-07-08T02:58:58.036Z,99.90
2018-07-08T03:01:26.517Z,99.90
2018-07-08T03:03:55.036Z,99.90
2018-07-08T03:06:23.458Z,99.90
2018-07-08T03:08:51.905Z,99.90
2018-07-08T03:11:20.360Z,99.90
2018-07-08T03:13:48.793Z,99.90
2018-07-08T03:16:17.258Z,99.90
2018-07-08T03:18:45.726Z,99.90
2018-07-08T03:21:14.234Z,99.90
2018-07-08T03:23:42.665Z,99.90
2018-07-08T03:26:11.115Z,99.90
2018-07-08T03:28:39.576Z,99.90
2018-07-08T03:31:08.105Z,99.90
2018-07-08T03:33:37.255Z,99.90
2018-07-08T03:36:05.738Z,99.90
2018-07-08T03:38:34.164Z,99.90
2018-07-08T03:41:02.706Z,99.90
2018-07-08T03:43:31.160Z,99.90
2018-07-08T03:45:59.658Z,99.90
2018-07-08T03:48:28.091Z,99.90
2018-07-08T03:50:56.662Z,99.90
2018-07-08T03:53:25.091Z,99.90
2018-07-08T03:55:53.510Z,99.90
2018-07-08T03:58:21.975Z,99.90
2018-07-08T04:00:50.406Z,99.90
2018-07-08T04:03:18.842Z,99.90
2018-07-08T04:05:48.176Z,99.90
2018-07-08T04:08:16.676Z,99.90
2018-07-08T04:10:45.138Z,99.90
2018-07-08T04:13:13.871Z,99.90
2018-07-08T04:15:42.386Z,99.90
2018-07-08T04:18:10.811Z,99.90
2018-07-08T04:20:40.021Z,99.90
2018-07-08T04:23:08.703Z,99.90
2018-07-08T04:25:37.804Z,99.90
2018-07-08T04:28:06.351Z,99.90
2018-07-08T04:30:34.869Z,99.90
2018-07-08T04:33:03.546Z,99.90
2018-07-08T04:35:31.999Z,99.90
2018-07-08T04:38:00.509Z,99.90
2018-07-08T04:40:29.087Z,99.90
2018-07-08T04:42:57.693Z,99.90
2018-07-08T04:45:26.230Z,99.90
2018-07-08T04:47:54.737Z,99.90
2018-07-08T04:50:23.340Z,99.90
2018-07-08T04:52:51.803Z,99.90
2018-07-08T04:55:20.988Z,99.90
2018-07-08T04:57:49.639Z,99.90
2018-07-08T05:00:18.080Z,99.90
2018-07-08T05:02:46.600Z,99.90
2018-07-08T05:05:15.053Z,99.90
2018-07-08T05:07:43.550Z,99.90
2018-07-08T05:10:12.045Z,99.90
2018-07-08T05:12:40.461Z,99.90
2018-07-08T05:15:09.552Z,99.90
2018-07-08T05:17:38.001Z,99.90
2018-07-08T05:20:06.641Z,99.90
2018-07-08T05:22:35.086Z,99.90
2018-07-08T05:25:03.651Z,99.90
2018-07-08T05:27:32.140Z,99.80
2018-07-08T05:30:00.630Z,99.90
2018-07-08T05:32:29.703Z,99.90
2018-07-08T05:34:58.181Z,99.90
2018-07-08T05:37:26.757Z,99.90
2018-07-08T05:39:55.232Z,99.70
2018-07-08T05:42:23.733Z,99.90
2018-07-08T05:44:52.271Z,99.70
2018-07-08T05:47:20.845Z,99.70
2018-07-08T05:49:49.631Z,99.60
2018-07-08T05:52:18.113Z,99.30
2018-07-08T05:54:46.622Z,99.10
2018-07-08T05:57:15.887Z,99.00
2018-07-08T05:59:44.407Z,99.20
2018-07-08T06:02:13.434Z,98.50
2018-07-08T06:04:41.970Z,98.60
2018-07-08T06:07:10.355Z,98.60
2018-07-08T06:09:38.887Z,97.50
2018-07-08T06:12:07.666Z,97.90
2018-07-08T06:14:36.160Z,97.90
2018-07-08T06:17:04.673Z,98.20
2018-07-08T06:19:33.190Z,97.80
2018-07-08T06:22:01.732Z,98.00
2018-07-08T06:24:30.435Z,98.10
2018-07-08T06:26:58.915Z,98.40
2018-07-08T06:29:27.334Z,97.40
2018-07-08T06:31:55.832Z,97.60
2018-07-08T06:34:24.285Z,97.70
2018-07-08T06:36:53.157Z,97.60
2018-07-08T06:39:21.708Z,97.50
2018-07-08T06:41:50.309Z,96.90
2018-07-08T06:44:20.347Z,96.40
2018-07-08T06:46:48.792Z,96.40
2018-07-08T06:49:17.292Z,96.70
2018-07-08T06:51:45.769Z,97.80
2018-07-08T06:54:14.252Z,96.40
2018-07-08T06:56:42.724Z,96.10
2018-07-08T06:59:11.201Z,96.10
2018-07-08T07:01:39.700Z,95.60
2018-07-08T07:04:08.162Z,95.70
2018-07-08T07:06:36.672Z,95.90
2018-07-08T07:09:07.645Z,95.50
2018-07-08T07:11:36.231Z,95.20
2018-07-08T07:14:04.677Z,95.00
2018-07-08T07:16:33.186Z,94.60
2018-07-08T07:19:01.712Z,94.90
2018-07-08T07:21:30.481Z,94.70
2018-07-08T07:23:59.782Z,94.10
2018-07-08T07:26:28.318Z,95.30
2018-07-08T07:28:56.883Z,94.00
2018-07-08T07:31:25.401Z,92.80
2018-07-08T07:33:54.051Z,92.30
2018-07-08T07:36:22.577Z,92.30
2018-07-08T07:38:51.694Z,92.60
2018-07-08T07:41:20.285Z,92.40
2018-07-08T07:43:48.781Z,90.70
2018-07-08T07:46:17.272Z,90.30
2018-07-08T07:48:45.747Z,89.70
2018-07-08T07:51:14.300Z,89.10
2018-07-08T07:53:42.734Z,90.50
2018-07-08T07:56:11.175Z,88.30
2018-07-08T07:58:39.685Z,88.30
2018-07-08T08:01:08.390Z,87.80
2018-07-08T08:03:36.813Z,84.20
2018-07-08T08:06:05.359Z,86.40
2018-07-08T08:08:33.870Z,83.70
2018-07-08T08:11:02.472Z,82.50
2018-07-08T08:13:31.168Z,83.70
2018-07-08T08:15:59.706Z,84.60
2018-07-08T08:18:28.344Z,85.10
2018-07-08T08:20:56.827Z,83.40
2018-07-08T08:23:25.303Z,84.80
2018-07-08T08:25:53.933Z,82.40
2018-07-08T08:28:22.540Z,80.90
2018-07-08T08:30:51.005Z,81.50
2018-07-08T08:33:19.736Z,83.00
2018-07-08T08:35:48.586Z,79.40
2018-07-08T08:38:17.090Z,73.90
2018-07-08T08:40:46.280Z,81.80
2018-07-08T08:43:14.767Z,73.80
2018-07-08T08:45:43.272Z,73.30
2018-07-08T08:48:11.741Z,75.20
2018-07-08T08:50:40.251Z,77.00
2018-07-08T08:53:08.736Z,76.20
2018-07-08T08:55:37.222Z,76.50
2018-07-08T08:58:05.837Z,74.30
2018-07-08T09:00:34.352Z,73.90
2018-07-08T09:03:02.809Z,75.80
2018-07-08T09:05:31.339Z,73.70
2018-07-08T09:07:59.863Z,74.20
2018-07-08T09:10:29.875Z,73.80
2018-07-08T09:12:58.349Z,73.50
2018-07-08T09:15:26.826Z,72.20
2018-07-08T09:20:23.475Z,74.80
2018-07-08T09:25:20.113Z,71.50
2018-07-08T09:27:48.596Z,72.40
2018-07-08T09:30:17.478Z,72.60
2018-07-08T09:32:46.503Z,71.00
2018-07-08T09:35:14.950Z,73.10
2018-07-08T09:37:43.366Z,73.90
2018-07-08T09:40:11.896Z,68.80
2018-07-08T09:42:40.401Z,72.90
2018-07-08T09:45:09.064Z,69.40
2018-07-08T09:47:37.526Z,71.10
2018-07-08T09:50:06.090Z,70.90
2018-07-08T09:52:34.606Z,71.70
2018-07-08T09:55:03.077Z,70.60
2018-07-08T09:57:31.589Z,68.90
2018-07-08T10:00:00.208Z,73.10
2018-07-08T10:02:28.715Z,69.00
2018-07-08T10:04:57.195Z,70.00
2018-07-08T10:07:25.801Z,67.00
2018-07-08T10:09:54.281Z,71.50
2018-07-08T10:12:22.856Z,68.50
2018-07-08T10:14:51.451Z,71.40
2018-07-08T10:17:19.938Z,71.40
2018-07-08T10:19:48.631Z,67.80
2018-07-08T10:22:16.999Z,70.20
2018-07-08T10:24:45.628Z,70.40
2018-07-08T10:28:23.416Z,69.70
2018-07-08T10:30:52.370Z,70.40
2018-07-08T10:33:20.990Z,72.00
2018-07-08T10:36:04.386Z,71.20
2018-07-08T10:38:33.245Z,69.70
2018-07-08T10:41:01.744Z,70.20
2018-07-08T10:43:30.259Z,69.00
2018-07-08T10:45:58.727Z,69.50
2018-07-08T10:48:27.271Z,68.30
2018-07-08T10:50:56.002Z,68.00
2018-07-08T10:53:24.496Z,68.60
2018-07-08T10:55:59.442Z,69.40
2018-07-08T10:58:27.890Z,73.00
2018-07-08T11:00:56.988Z,69.90
2018-07-08T11:03:25.689Z,70.50
2018-07-08T11:05:54.317Z,68.50
2018-07-08T11:10:51.144Z,68.50
2018-07-08T11:13:19.812Z,68.70
2018-07-08T11:15:49.259Z,71.00
2018-07-08T11:18:17.751Z,69.10
2018-07-08T11:20:46.208Z,69.10
2018-07-08T11:23:14.734Z,68.50
2018-07-08T11:25:43.208Z,68.20
2018-07-08T11:28:11.725Z,68.00
2018-07-08T11:30:40.435Z,67.70
2018-07-08T11:33:09.514Z,66.50
2018-07-08T11:35:38.073Z,70.10
2018-07-08T11:38:06.974Z,67.50
2018-07-08T11:40:35.545Z,66.80
2018-07-08T11:43:10.568Z,68.30
2018-07-08T11:45:39.700Z,65.80
2018-07-08T11:48:08.279Z,67.20
2018-07-08T11:50:36.819Z,66.20
2018-07-08T11:53:05.328Z,66.70
2018-07-08T11:55:33.803Z,68.90
2018-07-08T11:58:02.310Z,65.60
2018-07-08T12:00:30.810Z,64.60
2018-07-08T12:02:59.244Z,64.80
2018-07-08T12:05:27.715Z,62.70
2018-07-08T12:07:56.246Z,67.90
2018-07-08T12:10:24.730Z,66.40
2018-07-08T12:12:53.157Z,64.10
2018-07-08T12:15:21.712Z,66.20
2018-07-08T12:17:50.324Z,68.20
2018-07-08T12:20:18.925Z,67.80
2018-07-08T12:22:47.363Z,68.50
2018-07-08T12:25:15.994Z,65.00
2018-07-08T12:27:44.544Z,68.70
2018-07-08T12:30:12.971Z,64.30
2018-07-08T12:32:41.497Z,65.10
2018-07-08T12:35:09.949Z,65.80
2018-07-08T12:37:38.552Z,66.20
2018-07-08T12:40:07.857Z,66.60
2018-07-08T12:42:36.531Z,67.30
2018-07-08T12:45:05.130Z,63.90
2018-07-08T12:47:33.620Z,65.70
2018-07-08T12:50:02.140Z,66.70
2018-07-08T12:52:30.715Z,65.00
2018-07-08T12:54:59.327Z,62.70
2018-07-08T12:57:28.210Z,61.80
2018-07-08T12:59:56.693Z,64.70
2018-07-08T13:02:25.211Z,65.40
2018-07-08T13:04:53.700Z,64.80
2018-07-08T13:07:22.239Z,62.10
2018-07-08T13:09:50.686Z,62.40
2018-07-08T13:12:19.159Z,64.50
2018-07-08T13:14:47.669Z,67.60
2018-07-08T13:17:16.175Z,62.50
2018-07-08T13:19:44.615Z,66.10
2018-07-08T13:22:13.279Z,67.10
2018-07-08T13:24:41.913Z,65.80
2018-07-08T13:27:11.249Z,67.40
2018-07-08T13:29:39.814Z,64.80
2018-07-08T13:32:08.363Z,68.40
2018-07-08T13:34:36.873Z,66.40
2018-07-08T13:37:06.154Z,66.50
2018-07-08T13:39:34.656Z,63.20
2018-07-08T13:42:03.330Z,64.10
2018-07-08T13:44:31.962Z,64.70
2018-07-08T13:47:00.427Z,60.60
2018-07-08T13:49:28.995Z,62.70
2018-07-08T13:54:26.309Z,62.80
2018-07-08T13:56:55.109Z,59.00
2018-07-08T13:59:23.664Z,62.80
2018-07-08T14:01:52.693Z,62.60
2018-07-08T14:04:21.306Z,61.10
2018-07-08T14:06:49.808Z,61.40
2018-07-08T14:09:18.293Z,61.70
2018-07-08T14:11:46.736Z,63.20
2018-07-08T14:14:15.236Z,63.10
2018-07-08T14:16:43.793Z,62.70
2018-07-08T14:19:12.295Z,58.80
2018-07-08T14:21:40.911Z,59.00
2018-07-08T14:24:09.403Z,60.60
2018-07-08T14:26:37.916Z,63.90
2018-07-08T14:29:06.413Z,58.10
2018-07-08T14:31:35.593Z,62.20
2018-07-08T14:34:04.279Z,61.60
2018-07-08T14:36:33.478Z,60.30
2018-07-08T14:39:01.938Z,63.40
2018-07-08T14:41:30.455Z,60.00
2018-07-08T14:43:58.910Z,62.60
2018-07-08T14:46:27.414Z,60.80
2018-07-08T14:48:55.950Z,61.00
2018-07-08T14:51:24.554Z,61.40
2018-07-08T14:53:53.252Z,63.30
2018-07-08T14:56:21.974Z,61.80
2018-07-08T14:58:50.438Z,60.80
2018-07-08T15:01:19.024Z,64.40
2018-07-08T15:03:47.515Z,59.70
2018-07-08T15:06:16.006Z,60.40
2018-07-08T15:08:44.546Z,59.00
2018-07-08T15:11:13.043Z,60.20
2018-07-08T15:13:41.555Z,60.00
2018-07-08T15:16:10.175Z,57.80
2018-07-08T15:18:38.595Z,59.00
2018-07-08T15:21:07.042Z,56.50
2018-07-08T15:23:35.533Z,56.10
2018-07-08T15:26:04.029Z,55.30
2018-07-08T15:28:32.523Z,56.10
2018-07-08T15:31:01.134Z,55.70
2018-07-08T15:33:29.649Z,58.10
2018-07-08T15:35:58.157Z,60.20
2018-07-08T15:38:26.767Z,57.80
2018-07-08T15:40:55.412Z,57.20
2018-07-08T15:43:24.299Z,57.10
2018-07-08T15:45:52.753Z,56.30
2018-07-08T15:48:21.289Z,56.60
2018-07-08T15:50:49.888Z,55.90
2018-07-08T15:53:19.033Z,55.70
2018-07-08T15:55:47.486Z,55.50
2018-07-08T15:58:16.768Z,54.90
2018-07-08T16:00:45.362Z,55.80
2018-07-08T16:03:13.866Z,55.60
2018-07-08T16:05:42.449Z,57.00
2018-07-08T16:08:10.922Z,54.60
2018-07-08T16:10:39.413Z,55.10
2018-07-08T16:13:08.004Z,56.20
2018-07-08T16:15:36.507Z,56.70
2018-07-08T16:18:05.068Z,56.20
2018-07-08T16:20:34.524Z,56.20
2018-07-08T16:25:31.458Z,56.80
2018-07-08T16:28:00.069Z,55.80
2018-07-08T16:30:28.776Z,56.10
2018-07-08T16:32:57.280Z,56.00
2018-07-08T16:35:25.883Z,55.20
2018-07-08T16:37:54.529Z,55.80
2018-07-08T16:40:23.037Z,55.40
2018-07-08T16:42:52.588Z,54.90
2018-07-08T16:45:21.217Z,54.20
2018-07-08T16:47:49.802Z,52.80
2018-07-08T16:50:18.344Z,54.30
2018-07-08T16:52:46.885Z,52.60
2018-07-08T16:55:15.386Z,53.10
2018-07-08T16:57:44.650Z,53.00
2018-07-08T17:00:13.186Z,52.00
2018-07-08T17:02:41.738Z,53.40
2018-07-08T17:05:10.218Z,52.80
2018-07-08T17:07:47.274Z,51.50
2018-07-08T17:10:15.862Z,53.40
2018-07-08T17:12:44.364Z,52.10
2018-07-08T17:15:12.858Z,52.90
2018-07-08T17:17:43.737Z,52.90
2018-07-08T17:20:12.383Z,53.90
2018-07-08T17:22:40.926Z,54.10
2018-07-08T17:25:09.696Z,54.00
2018-07-08T17:27:38.310Z,52.70
2018-07-08T17:30:07.047Z,54.40
2018-07-08T17:32:35.868Z,54.10
2018-07-08T17:35:04.703Z,53.20
2018-07-08T17:37:33.429Z,53.30
2018-07-08T17:40:01.964Z,53.70
2018-07-08T17:42:30.491Z,54.20
2018-07-08T17:44:59.074Z,54.10
2018-07-08T17:47:27.798Z,54.10
2018-07-08T17:49:56.585Z,54.80
2018-07-08T17:52:25.076Z,54.80
2018-07-08T17:54:53.641Z,53.10
2018-07-08T17:57:23.169Z,53.90
2018-07-08T17:59:51.754Z,53.70
2018-07-08T18:02:20.206Z,55.00
2018-07-08T18:04:48.967Z,55.50
2018-07-08T18:07:17.725Z,54.40
2018-07-08T18:09:46.530Z,55.40
2018-07-08T18:12:15.054Z,55.40
2018-07-08T18:14:43.521Z,54.10
2018-07-08T18:17:12.070Z,52.60
2018-07-08T18:19:40.675Z,53.20
2018-07-08T18:22:09.396Z,53.70
2018-07-08T18:24:38.108Z,53.30
2018-07-08T18:27:06.727Z,53.00
2018-07-08T18:29:35.370Z,53.70
2018-07-08T18:32:03.885Z,54.00
2018-07-08T18:34:32.831Z,54.60
2018-07-08T18:37:01.346Z,53.90
2018-07-08T18:39:30.176Z,53.60
2018-07-08T18:41:58.749Z,52.90
2018-07-08T18:44:27.340Z,53.30
2018-07-08T18:46:55.950Z,52.70
2018-07-08T18:49:24.609Z,52.50
2018-07-08T18:54:21.686Z,53.00
2018-07-08T18:56:50.268Z,53.70
2018-07-08T19:01:47.121Z,53.90
2018-07-08T19:04:15.607Z,54.70
2018-07-08T19:06:44.131Z,56.30
2018-07-08T19:09:12.722Z,58.70
2018-07-08T19:11:41.205Z,56.80
2018-07-08T19:14:10.026Z,56.90
2018-07-08T19:16:38.525Z,57.70
2018-07-08T19:19:11.108Z,58.80
2018-07-08T19:21:40.090Z,56.20
2018-07-08T19:24:08.626Z,55.40
2018-07-08T19:26:37.195Z,55.40
2018-07-08T19:29:05.771Z,57.00
2018-07-08T19:31:34.660Z,59.00
2018-07-08T19:34:03.297Z,60.10
2018-07-08T19:36:32.469Z,61.90
2018-07-08T19:39:01.014Z,62.20
2018-07-08T19:41:29.620Z,65.30
2018-07-08T19:43:59.021Z,65.20
2018-07-08T19:46:27.989Z,65.40
2018-07-08T19:48:56.785Z,65.50
2018-07-08T19:51:25.336Z,66.20
2018-07-08T19:53:54.010Z,66.60
2018-07-08T19:56:22.495Z,66.00
2018-07-08T19:58:51.151Z,64.80
2018-07-08T20:01:19.644Z,64.90
2018-07-08T20:03:48.148Z,66.70
2018-07-08T20:06:17.170Z,65.60
2018-07-08T20:08:45.804Z,67.90
2018-07-08T20:11:14.533Z,68.60
2018-07-08T20:13:43.035Z,70.80
2018-07-08T20:16:11.502Z,72.90
2018-07-08T20:18:40.123Z,74.20
2018-07-08T20:21:08.644Z,76.60
2018-07-08T20:23:37.099Z,75.90
2018-07-08T20:26:05.658Z,77.40
2018-07-08T20:28:34.261Z,77.20
2018-07-08T20:31:03.142Z,77.10
2018-07-08T20:33:31.650Z,78.80
2018-07-08T20:36:00.457Z,79.80
2018-07-08T20:38:29.185Z,76.80
2018-07-08T20:43:25.916Z,74.60
2018-07-08T20:45:54.476Z,74.40
2018-07-08T20:48:23.020Z,76.30
2018-07-08T20:50:51.470Z,76.10
2018-07-08T20:53:20.009Z,77.00
2018-07-08T20:55:48.613Z,74.60
2018-07-08T20:58:17.181Z,76.30
2018-07-08T21:00:45.884Z,76.60
2018-07-08T21:03:14.413Z,77.20
2018-07-08T21:05:42.973Z,76.00
2018-07-08T21:08:12.247Z,76.00
2018-07-08T21:10:40.773Z,76.00
2018-07-08T21:13:09.323Z,77.80
2018-07-08T21:15:38.065Z,77.80
2018-07-08T21:18:06.869Z,79.10
2018-07-08T21:20:35.595Z,79.60
2018-07-08T21:23:04.138Z,78.90
2018-07-08T21:25:32.717Z,79.60
2018-07-08T21:28:01.275Z,80.30
2018-07-08T21:30:30.015Z,81.80
2018-07-08T21:32:58.478Z,80.40
2018-07-08T21:35:27.438Z,81.40
2018-07-08T21:37:55.943Z,81.10
2018-07-08T21:40:25.450Z,81.90
2018-07-08T21:42:54.166Z,82.70
2018-07-08T21:45:22.749Z,83.50
2018-07-08T21:47:57.525Z,83.80
2018-07-08T21:50:26.445Z,84.80
2018-07-08T21:52:54.962Z,84.00
2018-07-08T21:55:23.463Z,84.70
2018-07-08T21:57:51.949Z,85.50
2018-07-08T22:00:28.512Z,86.30
2018-07-08T22:02:57.723Z,87.40
2018-07-08T22:05:27.678Z,86.90
2018-07-08T22:08:03.393Z,87.80
2018-07-08T22:10:37.827Z,87.90
2018-07-08T22:13:06.320Z,88.00
2018-07-08T22:15:34.918Z,88.50
2018-07-08T22:18:03.452Z,88.90
2018-07-08T22:20:32.082Z,88.00
2018-07-08T22:23:00.672Z,89.90
2018-07-08T22:25:29.145Z,89.80
2018-07-08T22:27:57.731Z,90.10
2018-07-08T22:30:27.920Z,90.10
2018-07-08T22:32:56.946Z,90.20
2018-07-08T22:38:10.088Z,90.60
2018-07-08T22:40:38.780Z,90.70
2018-07-08T22:43:07.285Z,90.50
2018-07-08T22:45:36.403Z,91.00
2018-07-08T22:48:05.198Z,91.30
2018-07-08T22:50:34.962Z,91.50
2018-07-08T22:53:04.033Z,91.90
2018-07-08T22:55:32.942Z,92.50
2018-07-08T22:58:01.839Z,92.60
2018-07-08T23:00:41.740Z,92.80
2018-07-08T23:04:14.934Z,93.10
2018-07-08T23:06:44.259Z,93.20
2018-07-08T23:09:13.035Z,93.60
2018-07-08T23:11:41.555Z,93.30
2018-07-08T23:14:10.847Z,93.40
2018-07-08T23:16:39.371Z,93.50
2018-07-08T23:19:08.005Z,93.00
2018-07-08T23:21:37.301Z,93.30
2018-07-08T23:24:06.450Z,93.20
2018-07-08T23:29:03.527Z,93.50
2018-07-08T23:31:33.210Z,93.70
2018-07-08T23:36:30.864Z,93.60
2018-07-08T23:38:59.428Z,93.70
2018-07-08T23:41:28.118Z,94.00
2018-07-08T23:44:04.012Z,94.20
2018-07-08T23:49:02.597Z,94.40
2018-07-08T23:51:31.900Z,94.30
2018-07-08T23:54:00.753Z,94.30
2018-07-08T23:56:29.298Z,94.70
2018-07-08T23:58:57.856Z,96.20
